^^
Lisbon, NH - Weather Station Historical Data
Daily Summary for July 1, 2021 Units:  English    Metric   Both
Daily Weekly Monthly Yearly
  High: Low: Average:
Temperature: 76.2 °F 64.8 °F 70.7 °F
Dew Point: 68.3 °F 60.4 °F 64.5 °F
Humidity: 100% 59% 82%
Wind Speed: 4.4mph 0mph 0.7mph
Wind Gust: 10mph - -
Wind- - ENE
Pressure: 29.82 in 29.75 in -
Precipitation: 0.02 in    
 
 
Tabular Data for July 1, 2021
Time Temperature Dew Point Pressure Wind Wind Speed Wind Gust Humidity Rainfall Rate (Hourly) solar
00:04 71.3 °F 68.3 °F 29.77 in Calm     90% 0.00 in 0 W/m2
00:09 71.2 °F 68.1 °F 29.77 in Calm     90% 0.00 in 0 W/m2
00:14 71.1 °F 68.2 °F 29.77 in Calm     90.5% 0.00 in 0 W/m2
00:19 70.9 °F 68.2 °F 29.77 in Calm     91% 0.00 in 0 W/m2
00:24 70.9 °F 68.1 °F 29.77 in Calm     91% 0.00 in 0 W/m2
00:29 70.8 °F 68 °F 29.77 in Calm     91% 0.00 in 0 W/m2
00:34 70.6 °F 68 °F 29.77 in Calm     91.5% 0.00 in 0 W/m2
00:39 70.4 °F 67.9 °F 29.77 in Calm     92% 0.00 in 0 W/m2
00:44 70.3 °F 67.8 °F 29.77 in Calm     92% 0.00 in 0 W/m2
00:49 70 °F 67.8 °F 29.77 in Calm     92.8% 0.00 in 0 W/m2
00:54 69.8 °F 67.7 °F 29.77 in Calm     93% 0.00 in 0 W/m2
00:59 69.6 °F 67.5 °F 29.77 in Calm     93% 0.00 in 0 W/m2
01:04 69.4 °F 67.5 °F 29.77 in Calm     93.4% 0.00 in 0 W/m2
01:09 69.3 °F 67.5 °F 29.77 in Calm     94% 0.00 in 0 W/m2
01:14 69.1 °F 67.3 °F 29.77 in Calm     94% 0.00 in 0 W/m2
01:19 69 °F 67.3 °F 29.76 in Calm     94.5% 0.00 in 0 W/m2
01:24 68.9 °F 67.4 °F 29.76 in Calm     95% 0.00 in 0 W/m2
01:29 68.8 °F 67.3 °F 29.76 in Calm     95% 0.00 in 0 W/m2
01:34 68.7 °F 67.5 °F 29.76 in Calm     95.9% 0.00 in 0 W/m2
01:39 68.6 °F 67.4 °F 29.76 in Calm     96% 0.00 in 0 W/m2
01:44 68.6 °F 67.5 °F 29.76 in Calm   2 mph 96.4% 0.00 in 0 W/m2
01:49 68.6 °F 67.7 °F 29.76 in SW 0.1 mph 2 mph 97% 0.00 in 0 W/m2
01:54 68.6 °F 67.7 °F 29.76 in Calm     97% 0.00 in 0 W/m2
01:59 68.7 °F 67.8 °F 29.76 in SE 0.1 mph 1 mph 97% 0.00 in 0 W/m2
02:04 68.8 °F 67.9 °F 29.75 in ESE 0.2 mph 2 mph 97.1% 0.00 in 0 W/m2
02:09 68.8 °F 68.1 °F 29.75 in Calm   1 mph 97.7% 0.00 in 0 W/m2
02:14 68.8 °F 68.2 °F 29.75 in Calm     98% 0.00 in 0 W/m2
02:19 68.8 °F 68.2 °F 29.75 in Calm     98% 0.00 in 0 W/m2
02:24 68.8 °F 68.2 °F 29.75 in Calm     98% 0.00 in 0 W/m2
02:29 68.6 °F 68 °F 29.76 in Calm     98% 0.00 in 0 W/m2
02:34 68.6 °F 68 °F 29.76 in Calm     98% 0.00 in 0 W/m2
02:39 68.6 °F 68 °F 29.76 in Calm     98% 0.00 in 0 W/m2
02:44 68.6 °F 68 °F 29.76 in Calm     98% 0.00 in 0 W/m2
02:49 68.6 °F 68 °F 29.76 in Calm     98% 0.00 in 0 W/m2
02:54 68.6 °F 68 °F 29.76 in East 0.1 mph 1 mph 98% 0.00 in 0 W/m2
02:59 68.4 °F 67.8 °F 29.76 in Calm   1 mph 98% 0.00 in 0 W/m2
03:04 68.4 °F 68 °F 29.75 in Calm     98.6% 0.00 in 0 W/m2
03:09 68.4 °F 68.1 °F 29.75 in East 0.3 mph 2 mph 99% 0.00 in 0 W/m2
03:14 68.4 °F 68.1 °F 29.76 in Calm   1 mph 99% 0.00 in 0 W/m2
03:19 68.3 °F 68 °F 29.76 in Calm     99% 0.00 in 0 W/m2
03:24 68.3 °F 68 °F 29.76 in Calm     99% 0.00 in 0 W/m2
03:29 68.3 °F 68 °F 29.76 in Calm     99% 0.00 in 0 W/m2
03:34 68.3 °F 68 °F 29.76 in Calm     99% 0.00 in 0 W/m2
03:39 68.1 °F 67.8 °F 29.76 in Calm     99% 0.00 in 0 W/m2
03:44 68.1 °F 67.8 °F 29.76 in Calm     99% 0.00 in 0 W/m2
03:49 68.1 °F 67.8 °F 29.76 in Calm     99% 0.00 in 0 W/m2
03:54 68.1 °F 67.8 °F 29.76 in Calm     99% 0.00 in 0 W/m2
03:59 68.1 °F 67.8 °F 29.76 in Calm     99% 0.00 in 0 W/m2
04:04 68.1 °F 68 °F 29.75 in Calm     99.6% 0.00 in 0 W/m2
04:09 68.1 °F 68.1 °F 29.75 in Calm     100% 0.00 in 0 W/m2
04:14 68.2 °F 68.2 °F 29.75 in Calm     100% 0.00 in 0 W/m2
04:19 68.3 °F 68.3 °F 29.75 in Calm     100% 0.00 in 0 W/m2
04:24 68.3 °F 68.3 °F 29.75 in Calm     100% 0.00 in 0 W/m2
04:29 68.3 °F 68.3 °F 29.75 in Calm     100% 0.00 in 0 W/m2
04:34 68.3 °F 68.3 °F 29.75 in Calm     100% 0.00 in 0 W/m2
04:39 68.3 °F 68.3 °F 29.75 in Calm     100% 0.00 in 0 W/m2
04:44 68.3 °F 68.3 °F 29.76 in Calm     100% 0.00 in 0 W/m2
04:49 68.3 °F 68.3 °F 29.76 in Calm     100% 0.00 in 0 W/m2
04:54 68.3 °F 68.3 °F 29.76 in Calm     100% 0.00 in 0 W/m2
04:59 68.3 °F 68.3 °F 29.76 in Calm     100% 0.00 in 0 W/m2
05:04 68.3 °F 68.3 °F 29.76 in Calm     100% 0.00 in 0 W/m2
05:09 68.3 °F 68.3 °F 29.76 in Calm     100% 0.00 in 0 W/m2
05:14 68.3 °F 68.3 °F 29.76 in ENE 2.3 mph 5 mph 100% 0.00 in 5 W/m2
05:19 68.1 °F 68.1 °F 29.76 in ENE 1.4 mph 4 mph 100% 0.00 in 5 W/m2
05:24 67.9 °F 67.9 °F 29.76 in NE 0.6 mph 3 mph 100% 0.00 in 5 W/m2
05:29 67.9 °F 67.9 °F 29.77 in NE 0.2 mph 1 mph 100% 0.00 in 7 W/m2
05:34 67.9 °F 67.9 °F 29.77 in Calm   1 mph 100% 0.00 in 9 W/m2
05:39 67.9 °F 67.9 °F 29.77 in Calm     100% 0.00 in 9 W/m2
05:44 67.9 °F 67.9 °F 29.77 in NE 0.3 mph 1 mph 100% 0.00 in 11 W/m2
05:49 67.9 °F 67.9 °F 29.77 in ENE 0.3 mph 2 mph 100% 0.00 in 16 W/m2
05:54 67.9 °F 67.9 °F 29.77 in Calm   1 mph 100% 0.00 in 16 W/m2
05:59 67.8 °F 67.8 °F 29.78 in SSE 0.3 mph 1 mph 100% 0.00 in 12 W/m2
06:04 67.6 °F 67.6 °F 29.78 in Calm   1 mph 100% 0.00 in 18 W/m2
06:09 67.7 °F 67.7 °F 29.78 in South 0.1 mph 1 mph 100% 0.00 in 33 W/m2
06:14 67.8 °F 67.8 °F 29.78 in Calm   1 mph 100% 0.00 in 33 W/m2
06:19 67.6 °F 67.4 °F 29.78 in Calm     99.4% 0.00 in 40 W/m2
06:24 67.6 °F 67.3 °F 29.78 in Calm     99% 0.00 in 49 W/m2
06:29 67.6 °F 67.2 °F 29.78 in Calm     98.6% 0.00 in 83 W/m2
06:34 67.6 °F 67 °F 29.78 in Calm     98% 0.00 in 130 W/m2
06:39 67.6 °F 66.7 °F 29.78 in Calm     97% 0.00 in 100 W/m2
06:44 67.7 °F 66.8 °F 29.79 in ENE 0.4 mph 2 mph 96.7% 0.00 in 100 W/m2
06:49 68 °F 66.8 °F 29.79 in ENE 1.3 mph 3 mph 96% 0.00 in 83 W/m2
06:54 68.2 °F 66.8 °F 29.79 in NE 0.9 mph 3 mph 95.1% 0.00 in 104 W/m2
06:59 68.4 °F 66.8 °F 29.80 in ENE 1.3 mph 3 mph 94.8% 0.00 in 104 W/m2
07:04 68.5 °F 66.8 °F 29.80 in NE 0.7 mph 3 mph 94.2% 0.00 in 90 W/m2
07:09 68.6 °F 66.8 °F 29.80 in NE 1 mph 3 mph 94% 0.00 in 77 W/m2
07:14 68.4 °F 66.3 °F 29.80 in ENE 3.1 mph 8 mph 92.9% 0.00 in 127 W/m2
07:19 68.3 °F 65.9 °F 29.80 in ENE 3.5 mph 8 mph 91.9% 0.00 in 139 W/m2
07:24 68.4 °F 65.7 °F 29.80 in ENE 3.3 mph 6 mph 91% 0.00 in 137 W/m2
07:29 68.4 °F 65.4 °F 29.81 in NE 1.8 mph 5 mph 90.2% 0.00 in 141 W/m2
07:34 68.4 °F 65.2 °F 29.81 in ENE 1.7 mph 4 mph 89.4% 0.00 in 150 W/m2
07:39 68.4 °F 65 °F 29.81 in NE 1.6 mph 5 mph 89% 0.00 in 151 W/m2
07:44 68.6 °F 65 °F 29.81 in NE 1.9 mph 6 mph 88.2% 0.00 in 164 W/m2
07:49 68.6 °F 64.7 °F 29.81 in NE 1.8 mph 6 mph 87.4% 0.00 in 169 W/m2
07:54 68.6 °F 64.4 °F 29.81 in ENE 2.2 mph 5 mph 86.4% 0.00 in 190 W/m2
07:59 68.7 °F 64.3 °F 29.81 in ENE 1.6 mph 4 mph 85.7% 0.00 in 190 W/m2
08:04 68.8 °F 64 °F 29.81 in NE 1.5 mph 5 mph 84.7% 0.00 in 181 W/m2
08:09 68.9 °F 64.2 °F 29.81 in NNE 0.6 mph 3 mph 84.9% 0.00 in 169 W/m2
08:14 68.9 °F 63.9 °F 29.82 in ENE 1.3 mph 3 mph 84% 0.00 in 199 W/m2
08:19 68.9 °F 63.6 °F 29.82 in ENE 1.3 mph 3 mph 83.4% 0.00 in 227 W/m2
08:24 68.9 °F 63.5 °F 29.82 in ENE 2.5 mph 5 mph 83% 0.00 in 274 W/m2
08:29 69.2 °F 63.7 °F 29.82 in ENE 2.4 mph 5 mph 82.9% 0.00 in 313 W/m2
08:34 69.5 °F 63.7 °F 29.82 in ENE 3.4 mph 7 mph 81.7% 0.00 in 378 W/m2
08:39 69.5 °F 63.2 °F 29.82 in ENE 3.4 mph 7 mph 80.5% 0.00 in 213 W/m2
08:44 69.2 °F 62.8 °F 29.82 in ENE 3.5 mph 7 mph 80% 0.00 in 185 W/m2
08:49 69.1 °F 62.7 °F 29.82 in ENE 3.2 mph 7 mph 80% 0.00 in 202 W/m2
08:54 69.3 °F 63 °F 29.82 in NE 1.4 mph 3 mph 80.4% 0.00 in 230 W/m2
08:59 69.4 °F 63.2 °F 29.82 in ENE 3.6 mph 6 mph 80.8% 0.00 in 230 W/m2
09:04 69.5 °F 63 °F 29.82 in ENE 2.2 mph 5 mph 79.9% 0.00 in 227 W/m2
09:09 69.7 °F 63.3 °F 29.82 in ENE 1.7 mph 4 mph 80% 0.00 in 246 W/m2
09:14 69.6 °F 63 °F 29.82 in East 1.2 mph 3 mph 79.6% 0.00 in 252 W/m2
09:19 69.5 °F 63 °F 29.82 in NE 2 mph 5 mph 79.8% 0.00 in 269 W/m2
09:24 69.8 °F 63 °F 29.82 in ENE 2.9 mph 6 mph 79% 0.00 in 311 W/m2
09:29 70 °F 62.8 °F 29.82 in ENE 2.5 mph 7 mph 77.8% 0.00 in 391 W/m2
09:34 70.4 °F 62.7 °F 29.81 in ENE 2.9 mph 5 mph 76.7% 0.00 in 472 W/m2
09:39 70.8 °F 62.7 °F 29.81 in ENE 3 mph 6 mph 75.5% 0.00 in 630 W/m2
09:44 71.5 °F 62.9 °F 29.81 in ENE 1.8 mph 5 mph 74.4% 0.00 in 630 W/m2
09:49 71.8 °F 63.1 °F 29.81 in NE 2.2 mph 5 mph 74% 0.00 in 556 W/m2
09:54 72.2 °F 62.6 °F 29.81 in ENE 2.4 mph 5 mph 71.8% 0.00 in 556 W/m2
09:59 72.1 °F 62.9 °F 29.82 in ENE 2.6 mph 6 mph 72.9% 0.00 in 327 W/m2
10:04 71.9 °F 62.6 °F 29.82 in East 2.3 mph 5 mph 72.7% 0.00 in 280 W/m2
10:09 71.3 °F 62.3 °F 29.82 in ENE 1.2 mph 5 mph 73.4% 0.00 in 267 W/m2
10:14 70.9 °F 62.3 °F 29.82 in East 1 mph 4 mph 74.2% 0.00 in 239 W/m2
10:19 70.9 °F 62.3 °F 29.82 in NE 0.8 mph 3 mph 74% 0.00 in 257 W/m2
10:24 71.2 °F 62.4 °F 29.82 in ENE 0.2 mph 2 mph 73.7% 0.00 in 266 W/m2
10:29 71.6 °F 63.1 °F 29.82 in NE 0.7 mph 3 mph 74.6% 0.00 in 266 W/m2
10:34 71.7 °F 62.7 °F 29.81 in ENE 0.3 mph 2 mph 73.3% 0.00 in 229 W/m2
10:39 71.8 °F 63 °F 29.81 in ENE 0.1 mph 1 mph 73.9% 0.00 in 202 W/m2
10:44 71.8 °F 62.5 °F 29.82 in NE 0.2 mph 2 mph 72.5% 0.00 in 162 W/m2
10:49 71.9 °F 62.8 °F 29.82 in ENE 0.2 mph 2 mph 73% 0.00 in 215 W/m2
10:54 72 °F 62.7 °F 29.82 in NE 1.6 mph 3 mph 72.6% 0.00 in 248 W/m2
10:59 72.1 °F 62.8 °F 29.82 in ENE 0.2 mph 3 mph 72.4% 0.00 in 371 W/m2
11:04 72.3 °F 63 °F 29.82 in NE 0.9 mph 3 mph 72.6% 0.00 in 417 W/m2
11:09 72.5 °F 62.3 °F 29.82 in East 1.9 mph 5 mph 70.4% 0.00 in 417 W/m2
11:14 72 °F 61.7 °F 29.82 in East 1.2 mph 3 mph 69.9% 0.00 in 322 W/m2
11:19 72 °F 61.9 °F 29.82 in ENE 0.6 mph 3 mph 70.4% 0.00 in 290 W/m2
11:24 72.3 °F 62.1 °F 29.82 in ENE 1.5 mph 3 mph 70.5% 0.00 in 259 W/m2
11:29 72.5 °F 62.1 °F 29.82 in NE 0.4 mph 3 mph 70% 0.00 in 283 W/m2
11:34 72.5 °F 62 °F 29.82 in East 0.6 mph 2 mph 69.5% 0.00 in 387 W/m2
11:39 72.7 °F 62.1 °F 29.82 in East 0.3 mph 2 mph 69.3% 0.00 in 512 W/m2
11:44 73.2 °F 62.7 °F 29.82 in ENE 1.2 mph 2 mph 69.7% 0.00 in 512 W/m2
11:49 73.3 °F 62.9 °F 29.82 in ENE 0.4 mph 2 mph 69.9% 0.00 in 436 W/m2
11:54 73.3 °F 62.1 °F 29.82 in NE 0.8 mph 2 mph 67.9% 0.00 in 394 W/m2
11:59 73.3 °F 62.2 °F 29.82 in ENE 1.2 mph 3 mph 68.2% 0.00 in 487 W/m2
12:04 73.6 °F 62.1 °F 29.82 in ENE 1.8 mph 3 mph 67.3% 0.00 in 706 W/m2
12:09 74.1 °F 62.2 °F 29.82 in NE 0.2 mph 3 mph 66.5% 0.00 in 686 W/m2
12:14 74.7 °F 62.1 °F 29.82 in SSE 1.1 mph 3 mph 64.8% 0.00 in 686 W/m2
12:19 74.6 °F 62.2 °F 29.82 in ENE 0.7 mph 2 mph 65.3% 0.00 in 364 W/m2
12:24 74.7 °F 62.1 °F 29.82 in ESE 0.1 mph 2 mph 64.9% 0.00 in 340 W/m2
12:29 74.7 °F 62.8 °F 29.82 in Calm   1 mph 66.6% 0.00 in 289 W/m2
12:34 74.8 °F 62 °F 29.82 in Calm     64.5% 0.00 in 343 W/m2
12:39 75 °F 62.5 °F 29.82 in SSE 0.4 mph 3 mph 65.1% 0.00 in 514 W/m2
12:44 75.1 °F 63.1 °F 29.82 in NNE 1.1 mph 3 mph 66.4% 0.00 in 385 W/m2
12:49 75 °F 62.4 °F 29.82 in ENE 1.5 mph 4 mph 64.9% 0.00 in 299 W/m2
12:54 74.7 °F 61.9 °F 29.82 in ENE 0.6 mph 2 mph 64.5% 0.00 in 271 W/m2
12:59 74.4 °F 62.3 °F 29.82 in ENE 1.2 mph 3 mph 65.9% 0.00 in 285 W/m2
13:04 74.3 °F 62.2 °F 29.82 in ENE 1.2 mph 3 mph 66.1% 0.00 in 296 W/m2
13:09 74.1 °F 61.5 °F 29.82 in ENE 1.4 mph 3 mph 65% 0.00 in 313 W/m2
13:14 74.1 °F 62.5 °F 29.82 in NE 0.3 mph 2 mph 67.2% 0.00 in 290 W/m2
13:19 74.3 °F 62.7 °F 29.82 in NE 1.4 mph 6 mph 67.3% 0.00 in 278 W/m2
13:24 74.4 °F 63.3 °F 29.82 in NE 2.1 mph 6 mph 68.3% 0.00 in 285 W/m2
13:29 74.1 °F 63.2 °F 29.82 in ENE 4.2 mph 8 mph 68.6% 0.00 in 266 W/m2
13:34 73.9 °F 63.2 °F 29.80 in NE 2 mph 6 mph 69.1% 0.00 in 257 W/m2
13:39 74 °F 63.3 °F 29.80 in NE 1.4 mph 4 mph 69.3% 0.00 in 280 W/m2
13:44 74.1 °F 63.7 °F 29.81 in ENE 1.5 mph 3 mph 69.9% 0.00 in 338 W/m2
13:49 74.5 °F 63.7 °F 29.81 in NE 1.1 mph 6 mph 69% 0.00 in 500 W/m2
13:54 74.8 °F 63.4 °F 29.81 in ENE 2.7 mph 7 mph 67.7% 0.00 in 674 W/m2
13:59 74.9 °F 62.7 °F 29.81 in ENE 3 mph 6 mph 65.7% 0.00 in 725 W/m2
14:04 75 °F 62.7 °F 29.80 in ENE 2.4 mph 6 mph 65.5% 0.00 in 477 W/m2
14:09 75.1 °F 63 °F 29.80 in NE 2.3 mph 6 mph 66% 0.00 in 368 W/m2
14:14 75.1 °F 62.7 °F 29.80 in ENE 2.2 mph 4 mph 65.3% 0.00 in 324 W/m2
14:19 75.1 °F 62.3 °F 29.80 in ENE 2.3 mph 6 mph 64.4% 0.00 in 523 W/m2
14:24 75.2 °F 62.9 °F 29.80 in ENE 1.7 mph 7 mph 65.7% 0.00 in 523 W/m2
14:29 75.4 °F 63.2 °F 29.80 in ENE 3.4 mph 7 mph 65.9% 0.00 in 405 W/m2
14:34 75.4 °F 62.4 °F 29.80 in NE 1.8 mph 8 mph 64.1% 0.00 in 387 W/m2
14:39 75.5 °F 62.6 °F 29.80 in ENE 3.3 mph 8 mph 64.3% 0.00 in 320 W/m2
14:44 75.8 °F 62 °F 29.80 in ENE 3.6 mph 7 mph 62.3% 0.00 in 313 W/m2
14:49 75.6 °F 61.8 °F 29.80 in ENE 4.2 mph 7 mph 62.3% 0.00 in 326 W/m2
14:54 75.4 °F 61.6 °F 29.80 in ENE 4.4 mph 10 mph 62.2% 0.00 in 350 W/m2
14:59 75.4 °F 62.4 °F 29.80 in NE 1.1 mph 5 mph 63.9% 0.00 in 359 W/m2
15:04 75.7 °F 62.7 °F 29.80 in NE 1.9 mph 5 mph 64.1% 0.00 in 304 W/m2
15:09 75.8 °F 61.9 °F 29.80 in ENE 2 mph 6 mph 62% 0.00 in 304 W/m2
15:14 75.8 °F 62.7 °F 29.80 in NE 2.4 mph 6 mph 63.8% 0.00 in 391 W/m2
15:19 75.9 °F 61.9 °F 29.80 in ENE 2.8 mph 6 mph 61.8% 0.00 in 336 W/m2
15:24 75.8 °F 62.1 °F 29.80 in ENE 2.4 mph 6 mph 62.6% 0.00 in 324 W/m2
15:29 75.8 °F 62.2 °F 29.80 in ENE 1.5 mph 3 mph 62.7% 0.00 in 296 W/m2
15:34 75.7 °F 61.8 °F 29.79 in NE 0.6 mph 3 mph 62% 0.00 in 282 W/m2
15:39 75.7 °F 62.5 °F 29.79 in East 0.5 mph 3 mph 63.6% 0.00 in 370 W/m2
15:44 75.9 °F 61.6 °F 29.79 in NNE 0.4 mph 5 mph 61.4% 0.00 in 361 W/m2
15:49 76.2 °F 62 °F 29.79 in NE 1.4 mph 5 mph 61.5% 0.00 in 285 W/m2
15:54 76.2 °F 61.2 °F 29.79 in ENE 3.6 mph 8 mph 59.6% 0.00 in 253 W/m2
15:59 75.9 °F 60.6 °F 29.79 in East 1.4 mph 5 mph 59% 0.00 in 232 W/m2
16:04 75.5 °F 60.4 °F 29.78 in East 0.4 mph 2 mph 59.3% 0.00 in 232 W/m2
16:09 75.5 °F 61.5 °F 29.78 in East 0.3 mph 2 mph 61.8% 0.00 in 230 W/m2
16:14 75.6 °F 61.7 °F 29.80 in ENE 0.6 mph 3 mph 62.1% 0.00 in 241 W/m2
16:19 75.6 °F 61.5 °F 29.80 in ENE 0.9 mph 3 mph 61.5% 0.00 in 227 W/m2
16:24 75.6 °F 61 °F 29.80 in ENE 0.6 mph 2 mph 60.6% 0.00 in 234 W/m2
16:29 75.8 °F 61.6 °F 29.80 in NE 0.7 mph 3 mph 61.5% 0.00 in 234 W/m2
16:34 75.9 °F 61 °F 29.78 in NE 1.3 mph 5 mph 60% 0.00 in 211 W/m2
16:39 75.8 °F 61.8 °F 29.78 in NE 0.9 mph 5 mph 61.9% 0.00 in 213 W/m2
16:44 75.7 °F 62 °F 29.78 in NE 0.7 mph 3 mph 62.4% 0.00 in 201 W/m2
16:49 75.5 °F 62 °F 29.78 in NE 2.3 mph 5 mph 63% 0.00 in 185 W/m2
16:54 75.2 °F 61.9 °F 29.78 in NE 1.5 mph 4 mph 63.2% 0.00 in 171 W/m2
16:59 75 °F 61.3 °F 29.78 in NE 0.8 mph 5 mph 62.4% 0.00 in 155 W/m2
17:04 74.7 °F 61.8 °F 29.78 in NE 0.7 mph 2 mph 64.1% 0.00 in 155 W/m2
17:09 74.6 °F 61.8 °F 29.78 in NE 1.1 mph 4 mph 64.4% 0.00 in 155 W/m2
17:14 74.5 °F 61.9 °F 29.78 in NE 0.5 mph 2 mph 64.8% 0.00 in 146 W/m2
17:19 74.4 °F 61.7 °F 29.77 in NNE 0.7 mph 3 mph 64.5% 0.00 in 135 W/m2
17:24 74.2 °F 61.5 °F 29.77 in NNE 0.3 mph 2 mph 64.5% 0.00 in 127 W/m2
17:29 74 °F 61.5 °F 29.77 in Calm   1 mph 65.1% 0.00 in 109 W/m2
17:34 74 °F 62.3 °F 29.77 in NE 0.1 mph 1 mph 66.8% 0.00 in 91 W/m2
17:39 73.9 °F 63 °F 29.77 in Calm   1 mph 68.7% 0.00 in 99 W/m2
17:44 73.9 °F 63.8 °F 29.77 in Calm     70.8% 0.00 in 111 W/m2
17:49 73.9 °F 63.9 °F 29.77 in Calm     71% 0.00 in 111 W/m2
17:54 73.8 °F 63.9 °F 29.77 in Calm     71.2% 0.00 in 104 W/m2
17:59 73.6 °F 63.6 °F 29.77 in NE 0.3 mph 2 mph 70.8% 0.00 in 113 W/m2
18:04 73.4 °F 62.8 °F 29.77 in North 0.1 mph 2 mph 69.3% 0.00 in 113 W/m2
18:09 73.3 °F 63.1 °F 29.77 in Calm   1 mph 70.4% 0.00 in 113 W/m2
18:14 73.2 °F 63.6 °F 29.78 in Calm     72% 0.00 in 116 W/m2
18:19 73.2 °F 64.1 °F 29.78 in Calm     73.2% 0.00 in 113 W/m2
18:24 73.2 °F 64.2 °F 29.78 in NE 0.3 mph 2 mph 73.5% 0.00 in 106 W/m2
18:29 73.2 °F 64 °F 29.78 in Calm     73% 0.00 in 99 W/m2
18:34 73.2 °F 64 °F 29.78 in Calm     73% 0.00 in 93 W/m2
18:39 73.2 °F 63.7 °F 29.78 in NE 0.1 mph 1 mph 72.1% 0.00 in 91 W/m2
18:44 73.2 °F 64.1 °F 29.78 in Calm     73.2% 0.00 in 86 W/m2
18:49 73.1 °F 63.9 °F 29.78 in Calm     73% 0.00 in 79 W/m2
18:54 73 °F 64 °F 29.78 in Calm     73.3% 0.00 in 74 W/m2
18:59 72.8 °F 64.1 °F 29.78 in Calm     74% 0.00 in 69 W/m2
19:04 72.8 °F 63.8 °F 29.78 in NE 0.2 mph 1 mph 73.6% 0.00 in 65 W/m2
19:09 72.6 °F 63.9 °F 29.78 in Calm     74% 0.00 in 58 W/m2
19:14 72.5 °F 63.9 °F 29.78 in Calm     74.4% 0.00 in 58 W/m2
19:19 72.2 °F 63.9 °F 29.78 in Calm   1 mph 75% 0.00 in 58 W/m2
19:24 72 °F 64 °F 29.78 in Calm     75.8% 0.00 in 46 W/m2
19:29 71.8 °F 64 °F 29.78 in Calm   1 mph 76.5% 0.00 in 39 W/m2
19:34 71.5 °F 64 °F 29.78 in Calm     77% 0.00 in 26 W/m2
19:39 71.3 °F 63.9 °F 29.78 in NE 0.1 mph 1 mph 77.3% 0.00 in 21 W/m2
19:44 71.1 °F 63.9 °F 29.78 in NE 0.1 mph 1 mph 78% 0.00 in 21 W/m2
19:49 71 °F 63.8 °F 29.78 in NE 1.2 mph 2 mph 78% 0.00 in 19 W/m2
19:54 70.8 °F 63.8 °F 29.78 in NE 0.4 mph 2 mph 78.4% 0.00 in 19 W/m2
19:59 70.7 °F 63.9 °F 29.78 in NNE 0.1 mph 1 mph 79.1% 0.00 in 18 W/m2
20:04 70.4 °F 64 °F 29.78 in Calm   1 mph 80% 0.00 in 14 W/m2
20:09 70.3 °F 63.9 °F 29.78 in Calm     80% 0.00 in 11 W/m2
20:14 70.2 °F 63.6 °F 29.78 in Calm   1 mph 79.7% 0.00 in 11 W/m2
20:19 69.9 °F 63.3 °F 29.78 in Calm     79.6% 0.00 in 9 W/m2
20:24 69.8 °F 63.4 °F 29.78 in Calm     80% 0.00 in 7 W/m2
20:29 69.6 °F 63.3 °F 29.78 in Calm     80.1% 0.00 in 5 W/m2
20:34 69.5 °F 63.2 °F 29.78 in NNE 0.1 mph 1 mph 80.4% 0.00 in 0 W/m2
20:39 69.4 °F 63.1 °F 29.78 in NNE 0.1 mph 1 mph 80.5% 0.00 in 0 W/m2
20:44 69.3 °F 63.6 °F 29.78 in NNE 0.6 mph 2 mph 82% 0.00 in 0 W/m2
20:49 69.3 °F 64.2 °F 29.78 in Calm   1 mph 83.8% 0.00 in 0 W/m2
20:54 69.1 °F 64.1 °F 29.78 in NNE 0.1 mph 1 mph 84% 0.00 in 0 W/m2
20:59 69 °F 64.2 °F 29.79 in Calm     84.6% 0.00 in 0 W/m2
21:04 68.9 °F 64.2 °F 29.79 in Calm     85% 0.00 in 0 W/m2
21:09 68.7 °F 64 °F 29.79 in Calm     85% 0.00 in 0 W/m2
21:14 68.5 °F 63.8 °F 29.79 in Calm     85% 0.00 in 0 W/m2
21:19 68.4 °F 63.5 °F 29.79 in Calm     84.5% 0.00 in 0 W/m2
21:24 68.2 °F 63.2 °F 29.79 in Calm     84% 0.00 in 0 W/m2
21:29 68 °F 63.1 °F 29.80 in Calm     84.3% 0.00 in 0 W/m2
21:34 67.9 °F 63.2 °F 29.80 in Calm     84.8% 0.00 in 0 W/m2
21:39 67.8 °F 63.2 °F 29.80 in Calm     85% 0.00 in 0 W/m2
21:44 67.8 °F 63.3 °F 29.80 in Calm     85.5% 0.00 in 0 W/m2
21:49 67.6 °F 63.3 °F 29.80 in Calm     86% 0.00 in 0 W/m2
21:54 67.6 °F 63.3 °F 29.80 in Calm     86% 0.00 in 0 W/m2
21:59 67.6 °F 63.4 °F 29.80 in Calm     86.5% 0.00 in 0 W/m2
22:04 67.4 °F 63.4 °F 29.80 in Calm     87% 0.00 in 0 W/m2
22:09 67.4 °F 63.7 °F 29.80 in Calm     88% 0.00 in 0 W/m2
22:14 67.3 °F 63.7 °F 29.80 in Calm     88.1% 0.00 in 0 W/m2
22:19 67.3 °F 64 °F 29.80 in Calm     89% 0.00 in 0 W/m2
22:24 67.1 °F 63.8 °F 29.80 in Calm     89% 0.00 in 0 W/m2
22:29 66.9 °F 63.7 °F 29.80 in Calm     89.5% 0.00 in 0 W/m2
22:34 66.9 °F 64 °F 29.80 in Calm     90.5% 0.00 in 0 W/m2
22:39 66.8 °F 64.1 °F 29.80 in Calm     91% 0.01 in 0 W/m2
22:44 66.6 °F 64.1 °F 29.80 in Calm     91.6% 0.01 in 0 W/m2
22:49 66.5 °F 64.2 °F 29.79 in Calm     92.3% 0.01 in 0 W/m2
22:54 66.4 °F 64.3 °F 29.79 in Calm     93% 0.01 in 0 W/m2
22:59 66.1 °F 64.1 °F 29.79 in Calm     93.1% 0.01 in 0 W/m2
23:04 65.9 °F 64.1 °F 29.79 in Calm     94% 0.01 in 0 W/m2
23:09 65.7 °F 64.1 °F 29.79 in Calm     94.5% 0.01 in 0 W/m2
23:14 65.5 °F 64.1 °F 29.79 in Calm     95% 0.01 in 0 W/m2
23:19 65.4 °F 64.1 °F 29.79 in Calm     95.4% 0.01 in 0 W/m2
23:24 65.3 °F 64.1 °F 29.79 in Calm     96% 0.01 in 0 W/m2
23:29 65.2 °F 64 °F 29.79 in Calm     96% 0.01 in 0 W/m2
23:34 65 °F 63.9 °F 29.78 in Calm     96% 0.01 in 0 W/m2
23:39 65 °F 64.1 °F 29.78 in Calm     97% 0.02 in 0 W/m2
23:44 64.9 °F 64 °F 29.78 in Calm     97% 0.02 in 0 W/m2
23:49 64.8 °F 64.1 °F 29.77 in Calm     97.5% 0.01 in 0 W/m2
23:54 64.8 °F 64.2 °F 29.77 in Calm     98% 0.01 in 0 W/m2
23:59 64.8 °F 64.2 °F 29.77 in Calm     98% 0.01 in 0 W/m2
Lisbon, New Hampshire, USA
Compliments of Weather Underground - 4 mb